Fritchton, Indiana
Current Conditions -  °F | °C
As of 10:22 AM on Saturday 20 Dec 2014 (Local Time) from KLWV Reporting Station
Haze Haze  
Wind Chill: 33°   Ceiling: 1400
Heat Index: 33°   Visibility: 6mi
Dew Point: 27°   Wind: 0mph
Humidity: 78%   Direction: NA
Pressure: 30.34"   Gusts: NA
Location:  38.6298°N, 87.5042°W
Report Text: KLWV 201622Z AUTO 00000KT 6SM HZ BKN014 OVC065 01/M03 A3034 RMK AO2 T00061028
Loading
Personal Weather Stations






























Interactive Weather Map New forecast layout! Learn more

10-Day Weather Forecast

Advertisements
Track Severe Weather on mobile